createdAt,value
2023-05-16T00:00:24.025Z,96372.94
2023-05-16T00:01:30.258Z,96366.06
2023-05-16T00:02:32.267Z,96362.22
2023-05-16T00:03:34.613Z,96358.84
2023-05-16T00:04:36.774Z,96361.22
2023-05-16T00:05:39.099Z,96360.06
2023-05-16T00:06:40.742Z,96358.59
2023-05-16T00:07:44.244Z,96360.97
2023-05-16T00:08:45.830Z,96358.28
2023-05-16T00:09:47.492Z,96360.44
2023-05-16T00:10:49.103Z,96347.19
2023-05-16T00:11:51.135Z,96342.81
2023-05-16T00:12:52.856Z,96339.66
2023-05-16T00:13:54.551Z,96332.03
2023-05-16T00:14:57.150Z,96332.81
2023-05-16T00:16:02.649Z,96331.28
2023-05-16T00:17:11.633Z,96329.34
2023-05-16T00:18:16.126Z,96331.28
2023-05-16T00:19:17.909Z,96330.13
2023-05-16T00:20:23.568Z,96315.91
2023-05-16T00:21:25.602Z,96312.91
2023-05-16T00:22:27.458Z,96320.34
2023-05-16T00:23:29.101Z,96327.66
2023-05-16T00:24:30.836Z,96326.81
2023-05-16T00:25:32.396Z,96312.91
2023-05-16T00:26:33.923Z,96314.53
2023-05-16T00:27:36.445Z,96315.03
2023-05-16T00:28:38.002Z,96317.84
2023-05-16T00:29:39.631Z,96319.44
2023-05-16T00:30:41.411Z,96325.28
2023-05-16T00:31:43.072Z,96317.66
2023-05-16T00:32:44.719Z,96318.84
2023-05-16T00:33:46.531Z,96316.50
2023-05-16T00:34:48.215Z,96317.06
2023-05-16T00:35:49.797Z,96313.13
2023-05-16T00:36:51.373Z,96313.22
2023-05-16T00:37:52.986Z,96311.69
2023-05-16T00:38:54.647Z,96306.94
2023-05-16T00:39:56.254Z,96311.53
2023-05-16T00:40:57.855Z,96302.34
2023-05-16T00:41:59.476Z,96309.38
2023-05-16T00:43:01.054Z,96307.53
2023-05-16T00:44:02.908Z,96302.19
2023-05-16T00:45:05.189Z,96302.63
2023-05-16T00:46:06.902Z,96304.16
2023-05-16T00:47:08.461Z,96291.75
2023-05-16T00:48:12.529Z,96292.41
2023-05-16T00:49:14.269Z,96293.97
2023-05-16T00:50:16.753Z,96304.34
2023-05-16T00:51:19.107Z,96298.81
2023-05-16T00:52:20.934Z,96297.28
2023-05-16T00:53:24.143Z,96303.56
2023-05-16T00:54:26.985Z,96303.25
2023-05-16T00:55:28.664Z,96304.81
2023-05-16T00:56:30.239Z,96302.63
2023-05-16T00:57:31.973Z,96293.06
2023-05-16T00:58:34.061Z,96299.25
2023-05-16T00:59:35.915Z,96302.78
2023-05-16T01:00:37.897Z,96298.13
2023-05-16T01:01:41.178Z,96288.81
2023-05-16T01:02:43.770Z,96284.06
2023-05-16T01:03:47.099Z,96274.78
2023-05-16T01:04:49.619Z,96277.53
2023-05-16T01:05:51.862Z,96279.03
2023-05-16T01:06:53.712Z,96282.44
2023-05-16T01:07:55.481Z,96276.56
2023-05-16T01:08:57.050Z,96273.00
2023-05-16T01:09:58.979Z,96270.63
2023-05-16T01:11:28.483Z,96276.00
2023-05-16T01:12:36.057Z,96274.03
2023-05-16T01:13:49.401Z,96270.28
2023-05-16T01:14:56.947Z,96269.97
2023-05-16T01:16:11.045Z,96269.22
2023-05-16T01:17:23.489Z,96270.72
2023-05-16T01:19:04.638Z,96267.69
2023-05-16T01:20:16.621Z,96267.69
2023-05-16T01:21:48.425Z,96275.44
2023-05-16T01:23:19.391Z,96274.72
2023-05-16T01:24:44.024Z,96266.97
2023-05-16T01:25:45.558Z,96270.81
2023-05-16T01:26:47.709Z,96266.19
2023-05-16T01:27:49.551Z,96267.72
2023-05-16T01:28:52.764Z,96264.63
2023-05-16T01:29:57.677Z,96268.41
2023-05-16T01:30:59.310Z,96266.88
2023-05-16T01:32:01.286Z,96273.06
2023-05-16T01:33:02.945Z,96269.66
2023-05-16T01:34:04.537Z,96258.09
2023-05-16T01:35:08.362Z,96258.81
2023-05-16T01:36:25.514Z,96251.06
2023-05-16T01:37:36.409Z,96258.22
2023-05-16T01:38:59.545Z,96262.00
2023-05-16T01:40:10.042Z,96259.00
2023-05-16T01:41:24.899Z,96257.56
2023-05-16T01:42:30.435Z,96262.94
2023-05-16T01:43:42.317Z,96257.19
2023-05-16T01:44:46.150Z,96256.38
2023-05-16T01:45:56.042Z,96255.91
2023-05-16T01:47:02.496Z,96256.56
2023-05-16T01:48:22.224Z,96260.00
2023-05-16T01:49:46.894Z,96257.31
2023-05-16T01:50:54.453Z,96251.63
2023-05-16T01:52:06.046Z,96248.81
2023-05-16T01:53:12.207Z,96254.19
2023-05-16T01:54:18.226Z,96259.59
2023-05-16T01:55:31.936Z,96259.25
2023-05-16T01:56:34.892Z,96249.66
2023-05-16T01:57:37.690Z,96253.56
2023-05-16T01:58:40.861Z,96249.00
2023-05-16T01:59:44.590Z,96252.88
2023-05-16T02:00:46.401Z,96251.75
2023-05-16T02:01:48.242Z,96253.66
2023-05-16T02:02:49.820Z,96254.50
2023-05-16T02:03:51.711Z,96258.38
2023-05-16T02:04:53.263Z,96259.94
2023-05-16T02:05:54.815Z,96255.34
2023-05-16T02:06:57.034Z,96261.03
2023-05-16T02:07:59.630Z,96260.19
2023-05-16T02:09:01.206Z,96258.28
2023-05-16T02:10:03.055Z,96257.16
2023-05-16T02:11:04.619Z,96252.16
2023-05-16T02:12:06.377Z,96251.38
2023-05-16T02:13:07.938Z,96256.34
2023-05-16T02:14:10.004Z,96261.38
2023-05-16T02:15:11.629Z,96258.69
2023-05-16T02:16:13.256Z,96266.44
2023-05-16T02:17:14.810Z,96252.94
2023-05-16T02:18:16.849Z,96258.28
2023-05-16T02:19:18.475Z,96255.59
2023-05-16T02:20:20.118Z,96252.16
2023-05-16T02:21:21.683Z,96253.72
2023-05-16T02:22:23.389Z,96257.59
2023-05-16T02:23:24.962Z,96258.38
2023-05-16T02:24:26.561Z,96260.19
2023-05-16T02:25:28.284Z,96258.28
2023-05-16T02:26:30.161Z,96257.94
2023-05-16T02:27:32.531Z,96264.50
2023-05-16T02:28:34.172Z,96265.22
2023-05-16T02:29:35.682Z,96260.28
2023-05-16T02:30:37.268Z,96247.56
2023-05-16T02:31:38.976Z,96248.25
2023-05-16T02:32:41.214Z,96253.88
2023-05-16T02:33:42.839Z,96257.28
2023-05-16T02:34:44.395Z,96267.16
2023-05-16T02:35:45.932Z,96269.31
2023-05-16T02:36:47.465Z,96260.88
2023-05-16T02:37:49.086Z,96261.66
2023-05-16T02:38:50.698Z,96267.72
2023-05-16T02:39:52.272Z,96266.69
2023-05-16T02:40:53.860Z,96261.97
2023-05-16T02:41:55.496Z,96257.41
2023-05-16T02:42:57.066Z,96265.09
2023-05-16T02:43:58.735Z,96261.25
2023-05-16T02:45:00.333Z,96257.47
2023-05-16T02:46:04.990Z,96257.59
2023-05-16T02:47:06.611Z,96256.13
2023-05-16T02:48:08.544Z,96256.47
2023-05-16T02:49:10.143Z,96259.59
2023-05-16T02:50:11.701Z,96256.19
2023-05-16T02:51:13.229Z,96254.28
2023-05-16T02:52:14.848Z,96260.91
2023-05-16T02:53:16.353Z,96259.41
2023-05-16T02:54:18.304Z,96257.13
2023-05-16T02:55:22.448Z,96251.66
2023-05-16T02:56:24.259Z,96239.81
2023-05-16T02:57:25.832Z,96249.47
2023-05-16T02:58:27.338Z,96237.84
2023-05-16T02:59:28.887Z,96235.59
2023-05-16T03:00:30.605Z,96251.03
2023-05-16T03:01:32.507Z,96243.25
2023-05-16T03:02:34.291Z,96230.09
2023-05-16T03:03:38.788Z,96233.72
2023-05-16T03:04:40.373Z,96237.22
2023-05-16T03:05:42.301Z,96236.81
2023-05-16T03:06:44.444Z,96234.84
2023-05-16T03:07:45.944Z,96229.53
2023-05-16T03:08:47.583Z,96235.00
2023-05-16T03:09:49.195Z,96230.44
2023-05-16T03:10:50.823Z,96232.81
2023-05-16T03:11:52.353Z,96243.63
2023-05-16T03:12:53.926Z,96241.38
2023-05-16T03:13:55.435Z,96236.00
2023-05-16T03:14:57.229Z,96229.13
2023-05-16T03:15:58.912Z,96236.09
2023-05-16T03:17:00.857Z,96233.84
2023-05-16T03:18:02.449Z,96239.25
2023-05-16T03:19:04.681Z,96237.63
2023-05-16T03:20:09.528Z,96231.41
2023-05-16T03:21:11.065Z,96226.09
2023-05-16T03:22:13.582Z,96228.78
2023-05-16T03:23:15.108Z,96239.03
2023-05-16T03:24:16.699Z,96238.84
2023-05-16T03:25:18.301Z,96236.41
2023-05-16T03:26:19.822Z,96239.53
2023-05-16T03:27:23.011Z,96232.72
2023-05-16T03:28:24.737Z,96239.75
2023-05-16T03:29:27.137Z,96230.97
2023-05-16T03:30:28.683Z,96237.56
2023-05-16T03:31:32.154Z,96232.97
2023-05-16T03:32:33.717Z,96229.19
2023-05-16T03:33:35.393Z,96226.91
2023-05-16T03:34:36.943Z,96230.81
2023-05-16T03:35:39.209Z,96240.81
2023-05-16T03:36:41.668Z,96227.75
2023-05-16T03:37:43.535Z,96227.75
2023-05-16T03:38:45.078Z,96228.94
2023-05-16T03:39:46.835Z,96234.19
2023-05-16T03:40:48.542Z,96229.19
2023-05-16T03:41:50.170Z,96229.19
2023-05-16T03:42:51.690Z,96231.41
2023-05-16T03:43:53.422Z,96235.97
2023-05-16T03:44:54.938Z,96236.69
2023-05-16T03:45:56.586Z,96226.78
2023-05-16T03:46:58.300Z,96229.13
2023-05-16T03:48:00.436Z,96229.94
2023-05-16T03:49:02.435Z,96221.38
2023-05-16T03:50:05.033Z,96225.28
2023-05-16T03:51:06.891Z,96226.09
2023-05-16T03:52:08.594Z,96226.91
2023-05-16T03:53:10.477Z,96226.97
2023-05-16T03:54:12.075Z,96231.59
2023-05-16T03:55:15.183Z,96231.59
2023-05-16T03:56:16.800Z,96230.75
2023-05-16T03:57:18.346Z,96236.16
2023-05-16T03:58:19.896Z,96233.47
2023-05-16T03:59:21.914Z,96240.34
2023-05-16T04:00:23.425Z,96241.84
2023-05-16T04:01:25.637Z,96239.22
2023-05-16T04:02:27.307Z,96240.00
2023-05-16T04:03:30.229Z,96239.66
2023-05-16T04:04:31.974Z,96235.78
2023-05-16T04:05:33.540Z,96241.56
2023-05-16T04:06:35.100Z,96240.00
2023-05-16T04:07:37.702Z,96246.09
2023-05-16T04:08:40.406Z,96243.72
2023-05-16T04:09:41.990Z,96242.94
2023-05-16T04:10:43.518Z,96241.41
2023-05-16T04:11:45.192Z,96237.56
2023-05-16T04:12:46.824Z,96226.84
2023-05-16T04:13:48.542Z,96230.28
2023-05-16T04:14:50.150Z,96231.03
2023-05-16T04:15:51.875Z,96228.78
2023-05-16T04:16:53.512Z,96242.34
2023-05-16T04:17:55.122Z,96235.81
2023-05-16T04:18:58.287Z,96226.19
2023-05-16T04:20:00.839Z,96227.38
2023-05-16T04:21:02.975Z,96243.84
2023-05-16T04:22:04.678Z,96226.75
2023-05-16T04:23:06.263Z,96230.16
2023-05-16T04:24:08.634Z,96236.38
2023-05-16T04:25:11.330Z,96238.69
2023-05-16T04:26:12.889Z,96239.03
2023-05-16T04:27:14.454Z,96235.63
2023-05-16T04:28:16.454Z,96239.13
2023-05-16T04:29:18.276Z,96236.09
2023-05-16T04:30:19.902Z,96237.69
2023-05-16T04:31:23.135Z,96227.72
2023-05-16T04:32:24.971Z,96227.38
2023-05-16T04:33:26.618Z,96224.72
2023-05-16T04:34:28.275Z,96229.75
2023-05-16T04:35:30.065Z,96234.03
2023-05-16T04:36:31.643Z,96224.00
2023-05-16T04:37:33.203Z,96221.72
2023-05-16T04:38:34.766Z,96230.25
2023-05-16T04:39:36.962Z,96227.91
2023-05-16T04:40:38.844Z,96231.03
2023-05-16T04:41:40.449Z,96234.94
2023-05-16T04:42:42.043Z,96240.34
2023-05-16T04:43:44.495Z,96244.97
2023-05-16T04:44:47.918Z,96248.09
2023-05-16T04:45:49.552Z,96246.59
2023-05-16T04:46:51.340Z,96249.31
2023-05-16T04:47:53.412Z,96250.47
2023-05-16T04:48:54.961Z,96253.19
2023-05-16T04:49:56.487Z,96258.97
2023-05-16T04:50:58.604Z,96257.34
2023-05-16T04:52:00.206Z,96258.03
2023-05-16T04:53:01.835Z,96247.97
2023-05-16T04:54:03.403Z,96252.25
2023-05-16T04:55:05.514Z,96251.50
2023-05-16T04:56:07.873Z,96248.03
2023-05-16T04:57:09.378Z,96248.03
2023-05-16T04:58:11.033Z,96247.97
2023-05-16T04:59:12.620Z,96249.41
2023-05-16T05:00:16.337Z,96254.81
2023-05-16T05:01:17.941Z,96250.97
2023-05-16T05:02:19.523Z,96249.41
2023-05-16T05:03:21.719Z,96253.25
2023-05-16T05:04:23.571Z,96249.06
2023-05-16T05:05:25.351Z,96247.19
2023-05-16T05:06:26.920Z,96248.38
2023-05-16T05:07:29.203Z,96244.13
2023-05-16T05:08:30.841Z,96250.38
2023-05-16T05:09:32.767Z,96250.38
2023-05-16T05:10:34.403Z,96250.78
2023-05-16T05:11:38.104Z,96244.25
2023-05-16T05:12:39.721Z,96245.06
2023-05-16T05:13:41.333Z,96240.44
2023-05-16T05:14:42.895Z,96239.63
2023-05-16T05:15:44.456Z,96238.00
2023-05-16T05:16:46.094Z,96247.16
2023-05-16T05:17:47.885Z,96244.03
2023-05-16T05:18:49.780Z,96239.06
2023-05-16T05:19:51.487Z,96228.72
2023-05-16T05:20:53.020Z,96234.16
2023-05-16T05:21:54.529Z,96233.44
2023-05-16T05:22:56.166Z,96229.53
2023-05-16T05:23:57.840Z,96229.50
2023-05-16T05:24:59.728Z,96224.44
2023-05-16T05:26:02.230Z,96228.63
2023-05-16T05:27:03.888Z,96233.63
2023-05-16T05:28:06.096Z,96227.91
2023-05-16T05:29:08.680Z,96234.94
2023-05-16T05:30:11.380Z,96232.22
2023-05-16T05:31:14.670Z,96231.06
2023-05-16T05:32:17.074Z,96220.31
2023-05-16T05:33:21.575Z,96217.66
2023-05-16T05:34:23.183Z,96221.16
2023-05-16T05:35:24.941Z,96217.31
2023-05-16T05:36:26.619Z,96213.13
2023-05-16T05:37:28.209Z,96213.97
2023-05-16T05:38:29.777Z,96215.91
2023-05-16T05:39:31.386Z,96219.44
2023-05-16T05:40:32.935Z,96220.94
2023-05-16T05:41:34.865Z,96218.28
2023-05-16T05:42:36.561Z,96219.81
2023-05-16T05:43:38.516Z,96216.00
2023-05-16T05:44:40.165Z,96209.03
2023-05-16T05:45:42.256Z,96210.59
2023-05-16T05:46:44.001Z,96211.31
2023-05-16T05:47:46.119Z,96204.41
2023-05-16T05:48:48.015Z,96198.97
2023-05-16T05:49:50.561Z,96213.66
2023-05-16T05:50:53.388Z,96209.75
2023-05-16T05:51:55.126Z,96212.81
2023-05-16T05:52:56.747Z,96200.88
2023-05-16T05:53:58.590Z,96194.31
2023-05-16T05:55:00.299Z,96192.03
2023-05-16T05:56:01.810Z,96193.97
2023-05-16T05:57:03.490Z,96204.38
2023-05-16T05:58:07.044Z,96208.22
2023-05-16T05:59:08.973Z,96211.69
2023-05-16T06:00:11.581Z,96210.56
2023-05-16T06:01:13.236Z,96205.91
2023-05-16T06:02:15.164Z,96216.00
2023-05-16T06:03:17.120Z,96212.50
2023-05-16T06:04:19.815Z,96214.41
2023-05-16T06:05:21.553Z,96209.63
2023-05-16T06:06:23.204Z,96212.63
2023-05-16T06:07:24.765Z,96213.84
2023-05-16T06:08:26.300Z,96216.22
2023-05-16T06:09:27.854Z,96212.69
2023-05-16T06:10:30.058Z,96214.97
2023-05-16T06:11:31.994Z,96214.22
2023-05-16T06:12:33.675Z,96220.09
2023-05-16T06:13:35.506Z,96218.22
2023-05-16T06:14:37.053Z,96225.19
2023-05-16T06:15:38.650Z,96231.69
2023-05-16T06:16:40.516Z,96224.28
2023-05-16T06:17:42.251Z,96224.94
2023-05-16T06:18:45.153Z,96231.06
2023-05-16T06:19:47.079Z,96224.13
2023-05-16T06:20:48.663Z,96225.69
2023-05-16T06:21:50.227Z,96220.38
2023-05-16T06:22:51.829Z,96216.91
2023-05-16T06:23:53.414Z,96207.22
2023-05-16T06:24:55.013Z,96207.19
2023-05-16T06:25:56.882Z,96201.41
2023-05-16T06:26:58.404Z,96205.69
2023-05-16T06:27:59.982Z,96208.00
2023-05-16T06:29:01.798Z,96208.00
2023-05-16T06:30:03.774Z,96210.34
2023-05-16T06:31:05.351Z,96212.25
2023-05-16T06:32:07.157Z,96211.91
2023-05-16T06:33:08.775Z,96212.69
2023-05-16T06:34:10.409Z,96217.38
2023-05-16T06:35:12.020Z,96217.47
2023-05-16T06:36:13.600Z,96217.09
2023-05-16T06:37:15.159Z,96215.13
2023-05-16T06:38:18.131Z,96213.56
2023-05-16T06:39:19.695Z,96208.50
2023-05-16T06:40:21.248Z,96208.94
2023-05-16T06:41:22.794Z,96202.03
2023-05-16T06:42:24.369Z,96208.22
2023-05-16T06:43:26.059Z,96209.00
2023-05-16T06:44:27.815Z,96219.03
2023-05-16T06:45:29.630Z,96220.59
2023-05-16T06:46:31.576Z,96222.97
2023-05-16T06:47:33.423Z,96219.06
2023-05-16T06:48:35.018Z,96212.56
2023-05-16T06:49:36.658Z,96214.53
2023-05-16T06:50:38.213Z,96203.75
2023-05-16T06:51:40.618Z,96204.56
2023-05-16T06:52:42.338Z,96207.25
2023-05-16T06:53:44.018Z,96203.78
2023-05-16T06:54:45.677Z,96192.56
2023-05-16T06:55:48.386Z,96185.22
2023-05-16T06:56:50.036Z,96184.88
2023-05-16T06:57:51.638Z,96177.13
2023-05-16T06:58:53.279Z,96177.50
2023-05-16T06:59:54.894Z,96187.56
2023-05-16T07:00:56.548Z,96181.38
2023-05-16T07:01:58.138Z,96176.75
2023-05-16T07:02:59.917Z,96172.88
2023-05-16T07:04:01.759Z,96175.56
2023-05-16T07:05:03.656Z,96182.09
2023-05-16T07:06:05.414Z,96179.00
2023-05-16T07:07:08.209Z,96174.38
2023-05-16T07:08:10.913Z,96170.09
2023-05-16T07:09:12.523Z,96178.25
2023-05-16T07:10:14.131Z,96173.56
2023-05-16T07:11:16.217Z,96168.13
2023-05-16T07:12:18.324Z,96168.44
2023-05-16T07:13:20.142Z,96164.97
2023-05-16T07:14:21.760Z,96168.44
2023-05-16T07:15:23.458Z,96162.56
2023-05-16T07:16:28.478Z,96163.28
2023-05-16T07:17:30.592Z,96166.00
2023-05-16T07:18:32.218Z,96167.22
2023-05-16T07:19:33.861Z,96156.38
2023-05-16T07:20:35.454Z,96153.97
2023-05-16T07:21:37.046Z,96146.16
2023-05-16T07:22:38.652Z,96147.59
2023-05-16T07:23:40.248Z,96148.44
2023-05-16T07:24:41.965Z,96147.25
2023-05-16T07:25:43.758Z,96140.63
2023-05-16T07:26:45.344Z,96144.03
2023-05-16T07:27:46.993Z,96155.25
2023-05-16T07:28:51.959Z,96145.66
2023-05-16T07:29:53.817Z,96143.75
2023-05-16T07:30:58.122Z,96141.47
2023-05-16T07:31:59.731Z,96143.75
2023-05-16T07:33:01.322Z,96147.50
2023-05-16T07:34:02.876Z,96145.81
2023-05-16T07:35:05.023Z,96153.44
2023-05-16T07:36:15.937Z,96155.97
2023-05-16T07:37:19.019Z,96152.28
2023-05-16T07:38:21.738Z,96156.81
2023-05-16T07:39:23.373Z,96159.75
2023-05-16T07:40:28.426Z,96157.75
2023-05-16T07:41:30.568Z,96164.59
2023-05-16T07:42:32.284Z,96164.47
2023-05-16T07:43:35.525Z,96160.97
2023-05-16T07:44:37.190Z,96165.69
2023-05-16T07:45:40.372Z,96167.97
2023-05-16T07:46:44.990Z,96166.69
2023-05-16T07:47:46.954Z,96168.31
2023-05-16T07:48:48.722Z,96161.44
2023-05-16T07:49:50.472Z,96159.69
2023-05-16T07:50:54.369Z,96159.78
2023-05-16T07:51:57.200Z,96163.78
2023-05-16T07:52:58.802Z,96161.50
2023-05-16T07:54:00.642Z,96165.47
2023-05-16T07:55:02.951Z,96161.34
2023-05-16T07:56:05.571Z,96161.06
2023-05-16T07:57:07.442Z,96159.91
2023-05-16T07:58:09.159Z,96165.69
2023-05-16T07:59:10.980Z,96157.13
2023-05-16T08:00:13.532Z,96168.69
2023-05-16T08:01:15.203Z,96163.16
2023-05-16T08:02:17.116Z,96173.56
2023-05-16T08:03:18.964Z,96172.38
2023-05-16T08:04:21.211Z,96171.59
2023-05-16T08:05:24.323Z,96157.09
2023-05-16T08:06:26.048Z,96170.56
2023-05-16T08:07:27.614Z,96171.28
2023-05-16T08:08:30.618Z,96177.56
2023-05-16T08:09:32.357Z,96179.88
2023-05-16T08:10:33.964Z,96165.19
2023-05-16T08:11:36.365Z,96172.25
2023-05-16T08:12:38.024Z,96162.03
2023-05-16T08:13:39.572Z,96159.75
2023-05-16T08:14:41.226Z,96166.81
2023-05-16T08:15:43.361Z,96163.38
2023-05-16T08:16:45.259Z,96178.56
2023-05-16T08:17:46.937Z,96166.06
2023-05-16T08:18:48.669Z,96163.75
2023-05-16T08:19:50.329Z,96158.34
2023-05-16T08:20:51.930Z,96166.16
2023-05-16T08:21:53.625Z,96160.72
2023-05-16T08:22:55.357Z,96145.56
2023-05-16T08:23:56.977Z,96149.00
2023-05-16T08:25:00.508Z,96153.66
2023-05-16T08:26:03.139Z,96132.97
2023-05-16T08:27:04.968Z,96147.31
2023-05-16T08:28:06.542Z,96140.28
2023-05-16T08:29:08.455Z,96151.94
2023-05-16T08:30:12.025Z,96144.16
2023-05-16T08:31:13.622Z,96141.88
2023-05-16T08:32:15.558Z,96133.34
2023-05-16T08:33:17.288Z,96131.81
2023-05-16T08:34:18.878Z,96139.63
2023-05-16T08:35:20.603Z,96140.41
2023-05-16T08:36:22.170Z,96133.47
2023-05-16T08:37:23.777Z,96140.34
2023-05-16T08:38:25.595Z,96154.31
2023-05-16T08:39:27.356Z,96156.59
2023-05-16T08:40:29.558Z,96153.50
2023-05-16T08:41:32.272Z,96144.16
2023-05-16T08:42:34.649Z,96149.19
2023-05-16T08:43:36.768Z,96151.44
2023-05-16T08:44:38.513Z,96152.56
2023-05-16T08:45:41.321Z,96144.84
2023-05-16T08:46:44.740Z,96153.66
2023-05-16T08:47:51.704Z,96146.09
2023-05-16T08:48:54.335Z,96142.91
2023-05-16T08:49:57.889Z,96137.78
2023-05-16T08:51:02.784Z,96136.06
2023-05-16T08:52:08.143Z,96131.75
2023-05-16T08:53:12.019Z,96137.91
2023-05-16T08:54:15.145Z,96133.22
2023-05-16T08:55:19.350Z,96145.53
2023-05-16T08:56:23.167Z,96136.81
2023-05-16T08:57:26.714Z,96144.34
2023-05-16T08:58:30.142Z,96150.75
2023-05-16T08:59:31.868Z,96154.13
2023-05-16T09:00:33.619Z,96151.19
2023-05-16T09:01:36.171Z,96156.16
2023-05-16T09:02:40.056Z,96152.94
2023-05-16T09:03:43.427Z,96143.84
2023-05-16T09:04:47.508Z,96131.72
2023-05-16T09:05:50.157Z,96129.00
2023-05-16T09:06:52.519Z,96131.25
2023-05-16T09:07:54.120Z,96138.22
2023-05-16T09:08:59.195Z,96130.22
2023-05-16T09:10:01.027Z,96125.44
2023-05-16T09:11:03.914Z,96126.72
2023-05-16T09:12:05.818Z,96134.34
2023-05-16T09:13:07.489Z,96131.09
2023-05-16T09:14:09.122Z,96127.00
2023-05-16T09:15:11.594Z,96119.88
2023-05-16T09:16:16.810Z,96120.94
2023-05-16T09:17:20.611Z,96121.25
2023-05-16T09:18:27.818Z,96120.06
2023-05-16T09:19:37.519Z,96118.75
2023-05-16T09:20:46.889Z,96118.59
2023-05-16T09:21:48.504Z,96121.19
2023-05-16T09:22:53.103Z,96113.66
2023-05-16T09:23:55.399Z,96116.03
2023-05-16T09:24:59.979Z,96110.59
2023-05-16T09:26:01.753Z,96105.06
2023-05-16T09:27:16.395Z,96095.13
2023-05-16T09:28:18.554Z,96113.38
2023-05-16T09:29:20.218Z,96104.50
2023-05-16T09:30:30.133Z,96097.34
2023-05-16T09:31:37.766Z,96084.47
2023-05-16T09:32:43.771Z,96096.22
2023-05-16T09:33:45.412Z,96101.22
2023-05-16T09:34:49.401Z,96101.88
2023-05-16T09:35:58.891Z,96098.03
2023-05-16T09:37:00.682Z,96082.69
2023-05-16T09:38:02.245Z,96090.47
2023-05-16T09:39:03.952Z,96113.91
2023-05-16T09:40:06.435Z,96102.13
2023-05-16T09:41:10.638Z,96095.47
2023-05-16T09:42:14.977Z,96090.88
2023-05-16T09:43:18.200Z,96088.25
2023-05-16T09:44:20.628Z,96100.25
2023-05-16T09:45:23.017Z,96092.06
2023-05-16T09:46:28.386Z,96095.56
2023-05-16T09:47:30.127Z,96086.59
2023-05-16T09:48:33.297Z,96090.38
2023-05-16T09:49:37.764Z,96094.28
2023-05-16T09:50:39.442Z,96091.56
2023-05-16T09:51:41.518Z,96092.25
2023-05-16T09:52:44.181Z,96093.09
2023-05-16T09:53:46.183Z,96098.22
2023-05-16T09:54:51.214Z,96090.88
2023-05-16T09:56:08.057Z,96088.97
2023-05-16T09:57:10.442Z,96089.19
2023-05-16T09:58:12.173Z,96088.41
2023-05-16T09:59:14.901Z,96090.72
2023-05-16T10:00:17.305Z,96089.34
2023-05-16T10:01:19.268Z,96081.47
2023-05-16T10:02:21.964Z,96078.25
2023-05-16T10:03:24.818Z,96073.38
2023-05-16T10:04:26.673Z,96073.97
2023-05-16T10:05:28.823Z,96078.16
2023-05-16T10:06:30.883Z,96078.69
2023-05-16T10:07:36.153Z,96074.13
2023-05-16T10:08:41.882Z,96068.81
2023-05-16T10:09:43.958Z,96063.34
2023-05-16T10:10:46.598Z,96063.66
2023-05-16T10:11:48.654Z,96083.28
2023-05-16T10:12:52.341Z,96075.59
2023-05-16T10:13:54.269Z,96069.31
2023-05-16T10:14:56.856Z,96080.78
2023-05-16T10:16:00.471Z,96083.19
2023-05-16T10:17:03.911Z,96081.81
2023-05-16T10:18:11.913Z,96078.59
2023-05-16T10:19:14.603Z,96077.56
2023-05-16T10:20:17.190Z,96078.25
2023-05-16T10:21:21.803Z,96088.66
2023-05-16T10:22:24.656Z,96082.34
2023-05-16T10:23:26.786Z,96085.91
2023-05-16T10:24:53.828Z,96089.84
2023-05-16T10:25:57.792Z,96086.97
2023-05-16T10:26:59.494Z,96097.03
2023-05-16T10:28:02.670Z,96089.25
2023-05-16T10:29:04.836Z,96084.47
2023-05-16T10:30:08.466Z,96081.31
2023-05-16T10:31:11.168Z,96079.97
2023-05-16T10:32:14.177Z,96090.69
2023-05-16T10:33:18.394Z,96089.88
2023-05-16T10:34:20.695Z,96088.31
2023-05-16T10:35:22.438Z,96085.84
2023-05-16T10:36:24.948Z,96084.91
2023-05-16T10:37:27.705Z,96084.75
2023-05-16T10:38:30.461Z,96073.81
2023-05-16T10:39:32.592Z,96067.91
2023-05-16T10:40:34.689Z,96068.09
2023-05-16T10:41:36.775Z,96075.69
2023-05-16T10:42:38.460Z,96067.66
2023-05-16T10:43:40.985Z,96067.75
2023-05-16T10:44:54.530Z,96067.84
2023-05-16T10:46:04.393Z,96069.34
2023-05-16T10:47:06.145Z,96083.72
2023-05-16T10:48:12.090Z,96084.22
2023-05-16T10:49:24.486Z,96090.72
2023-05-16T10:50:35.129Z,96090.38
2023-05-16T10:51:38.720Z,96090.38
2023-05-16T10:52:40.490Z,96096.50
2023-05-16T10:53:42.124Z,96096.66
2023-05-16T10:54:51.823Z,96092.03
2023-05-16T10:55:59.275Z,96086.25
2023-05-16T10:57:09.682Z,96082.75
2023-05-16T10:58:11.277Z,96081.69
2023-05-16T10:59:27.151Z,96094.06
2023-05-16T11:00:30.359Z,96096.66
2023-05-16T11:01:35.692Z,96099.28
2023-05-16T11:02:41.760Z,96096.22
2023-05-16T11:03:59.098Z,96097.75
2023-05-16T11:05:05.440Z,96113.03
2023-05-16T11:06:07.062Z,96104.88
2023-05-16T11:07:09.511Z,96111.56
2023-05-16T11:08:11.717Z,96102.25
2023-05-16T11:09:16.336Z,96097.91
2023-05-16T11:10:17.948Z,96090.06
2023-05-16T11:11:41.889Z,96084.97
2023-05-16T11:12:50.767Z,96086.56
2023-05-16T11:13:55.798Z,96084.53
2023-05-16T11:14:58.702Z,96084.28
2023-05-16T11:16:29.065Z,96086.38
2023-05-16T11:17:41.446Z,96091.72
2023-05-16T11:18:51.048Z,96075.00
2023-05-16T11:19:59.280Z,96071.59
2023-05-16T11:21:04.434Z,96066.13
2023-05-16T11:22:06.967Z,96061.50
2023-05-16T11:23:19.060Z,96072.19
2023-05-16T11:24:31.303Z,96070.06
2023-05-16T11:25:41.414Z,96061.16
2023-05-16T11:26:43.345Z,96049.06
2023-05-16T11:27:47.004Z,96043.44
2023-05-16T11:28:54.133Z,96048.88
2023-05-16T11:30:03.191Z,96042.31
2023-05-16T11:31:06.216Z,96044.28
2023-05-16T11:32:07.798Z,96046.00
2023-05-16T11:33:09.501Z,96046.16
2023-05-16T11:34:11.158Z,96034.22
2023-05-16T11:35:15.518Z,96034.56
2023-05-16T11:36:17.300Z,96032.13
2023-05-16T11:37:20.224Z,96018.16
2023-05-16T11:38:22.489Z,96020.53
2023-05-16T11:39:27.217Z,96018.31
2023-05-16T11:40:28.853Z,96017.97
2023-05-16T11:41:32.726Z,96025.31
2023-05-16T11:42:42.609Z,96024.94
2023-05-16T11:43:46.145Z,96030.00
2023-05-16T11:44:47.802Z,96025.84
2023-05-16T11:45:54.719Z,96029.56
2023-05-16T11:46:56.781Z,96036.81
2023-05-16T11:48:04.238Z,96042.28
2023-05-16T11:49:06.144Z,96040.19
2023-05-16T11:50:12.372Z,96041.97
2023-05-16T11:51:18.743Z,96052.13
2023-05-16T11:52:21.682Z,96059.81
2023-05-16T11:53:23.437Z,96061.50
2023-05-16T11:54:25.716Z,96058.56
2023-05-16T11:55:41.407Z,96065.53
2023-05-16T11:56:44.200Z,96061.78
2023-05-16T11:57:46.038Z,96059.03
2023-05-16T11:58:48.173Z,96065.44
2023-05-16T11:59:49.804Z,96059.75
2023-05-16T12:00:52.042Z,96055.44
2023-05-16T12:01:53.673Z,96051.75
2023-05-16T12:03:01.538Z,96059.94
2023-05-16T12:04:09.990Z,96053.69
2023-05-16T12:05:12.005Z,96055.63
2023-05-16T12:06:15.360Z,96056.50
2023-05-16T12:07:16.924Z,96051.44
2023-05-16T12:08:18.544Z,96059.72
2023-05-16T12:09:20.132Z,96060.63
2023-05-16T12:10:21.898Z,96066.31
2023-05-16T12:11:24.058Z,96069.72
2023-05-16T12:12:25.642Z,96067.84
2023-05-16T12:13:27.583Z,96071.63
2023-05-16T12:14:29.309Z,96071.63
2023-05-16T12:15:31.334Z,96076.53
2023-05-16T12:16:34.323Z,96077.91
2023-05-16T12:17:37.425Z,96073.63
2023-05-16T12:18:42.654Z,96079.13
2023-05-16T12:19:46.514Z,96079.25
2023-05-16T12:20:48.255Z,96077.50
2023-05-16T12:21:54.423Z,96081.28
2023-05-16T12:22:57.935Z,96082.13